Time;durP1;ratioP1;P1;durP2;ratioP2;P2;SDS_P1;SDS_P2;PMS_P1;PMS_P2;Temp;Humidity;BMP_temperature;BMP_pressure;BME280_temperature;BME280_humidity;BME280_pressure;Samples;Min_cycle;Max_cycle;Signal;HPM_P1;HPM_P2
2022/11/05 00:09:50;;;;;;;14.90;10.60;;;;;;;8.14;100.00;100497.94;7401990;19;20014;-68
2022/11/05 00:17:43;;;;;;;12.93;9.70;;;;;;;8.11;100.00;100506.69;7401458;19;20026;-68
2022/11/05 00:20:13;;;;;;;16.52;11.32;;;;;;;8.10;100.00;100506.69;7401838;19;20074;-68
2022/11/05 00:25:22;;;;;;;19.98;11.95;;;;;;;8.08;100.00;100508.47;7401514;19;20010;-68
2022/11/05 00:27:53;;;;;;;22.88;12.60;;;;;;;8.08;100.00;100513.69;7401446;19;20410;-68
2022/11/05 00:30:23;;;;;;;17.42;12.25;;;;;;;8.06;100.00;100515.47;7400935;19;20552;-68
2022/11/05 00:32:55;;;;;;;17.38;11.35;;;;;;;8.05;100.00;100516.34;7401486;19;20019;-68
2022/11/05 00:35:24;;;;;;;17.15;11.77;;;;;;;8.04;100.00;100525.06;7401415;19;20018;-68
2022/11/05 00:37:54;;;;;;;19.73;11.88;;;;;;;8.03;100.00;100515.53;7398269;19;20078;-68
2022/11/05 00:40:23;;;;;;;19.58;12.05;;;;;;;8.02;100.00;100524.25;7398041;19;20488;-68
2022/11/05 00:45:32;;;;;;;17.95;12.20;;;;;;;8.01;100.00;100536.44;7400808;19;20375;-71
2022/11/05 00:50:44;;;;;;;18.13;12.38;;;;;;;7.99;100.00;100541.69;7400706;19;20023;-72
2022/11/05 00:53:13;;;;;;;20.52;12.90;;;;;;;7.97;100.00;100535.63;7400109;19;20018;-70
2022/11/05 00:55:43;;;;;;;18.58;13.40;;;;;;;7.98;100.00;100539.09;7399815;19;20422;-69
2022/11/05 00:58:13;;;;;;;18.55;12.85;;;;;;;7.95;100.00;100540.00;7400290;19;20025;-67
2022/11/05 01:00:45;;;;;;;20.17;12.73;;;;;;;7.95;100.00;100555.69;7399813;19;20596;-69
2022/11/05 01:03:18;;;;;;;20.17;13.63;;;;;;;7.95;100.00;100555.69;7399891;19;20018;-69
2022/11/05 01:05:49;;;;;;;18.83;12.52;;;;;;;7.95;100.00;100555.69;7400466;19;20019;-69
2022/11/05 01:08:20;;;;;;;21.05;13.55;;;;;;;7.94;100.00;100555.72;7400427;19;20070;-69
2022/11/05 01:10:51;;;;;;;18.25;12.40;;;;;;;7.95;100.00;100560.06;7400188;19;20426;-70
2022/11/05 01:13:21;;;;;;;23.15;12.93;;;;;;;7.94;100.00;100569.63;7397711;19;20022;-70
2022/11/05 01:15:50;;;;;;;21.15;14.05;;;;;;;7.94;100.00;100569.63;7396974;19;20485;-70
2022/11/05 01:18:23;;;;;;;23.52;14.25;;;;;;;7.94;100.00;100571.38;7399064;19;20023;-70
2022/11/05 01:20:52;;;;;;;23.02;12.82;;;;;;;7.93;100.00;100573.09;7397334;19;20018;-69
2022/11/05 01:23:20;;;;;;;19.40;13.57;;;;;;;7.92;100.00;100574.03;7396664;19;20510;-70
2022/11/05 01:25:48;;;;;;;19.73;13.63;;;;;;;7.93;100.00;100574.88;7399431;19;20019;-69
2022/11/05 01:28:17;;;;;;;19.25;13.60;;;;;;;7.91;100.00;100576.63;7396909;19;20418;-69
2022/11/05 01:30:45;;;;;;;20.92;12.73;;;;;;;7.91;100.00;100574.91;7398851;19;20027;-69
2022/11/05 01:33:14;;;;;;;20.42;13.25;;;;;;;7.91;100.00;100574.91;7398727;19;20022;-69
2022/11/05 01:35:45;;;;;;;22.92;13.60;;;;;;;7.90;100.00;100578.38;7398644;19;20019;-69
2022/11/05 01:38:13;;;;;;;19.73;13.30;;;;;;;7.88;100.00;100585.38;7398306;19;20018;-69
2022/11/05 01:40:44;;;;;;;18.88;13.10;;;;;;;7.87;100.00;100583.63;7398821;19;20035;-69
2022/11/05 01:43:18;;;;;;;19.60;13.10;;;;;;;7.87;100.00;100583.63;7398804;19;20078;-69
2022/11/05 01:45:49;;;;;;;21.75;13.48;;;;;;;7.86;100.00;100591.50;7397064;19;20089;-69
2022/11/05 01:48:21;;;;;;;17.67;12.02;;;;;;;7.82;100.00;100588.94;7398704;19;20040;-69
2022/11/05 01:50:57;;;;;;;20.13;12.77;;;;;;;7.79;100.00;100588.97;7398893;19;20023;-68
2022/11/05 01:53:32;;;;;;;19.60;13.15;;;;;;;7.78;100.00;100594.22;7398159;19;20039;-69
2022/11/05 01:56:04;;;;;;;21.40;11.80;;;;;;;7.73;100.00;100596.03;7397819;19;20090;-69
2022/11/05 01:58:38;;;;;;;18.13;12.55;;;;;;;7.72;100.00;100597.78;7398337;19;20014;-69
2022/11/05 02:01:07;;;;;;;20.83;11.98;;;;;;;7.69;100.00;100600.41;7397977;19;20631;-68
2022/11/05 02:03:36;;;;;;;20.08;13.80;;;;;;;7.66;100.00;100598.69;7397431;19;20014;-68
2022/11/05 02:06:09;;;;;;;17.67;12.52;;;;;;;7.64;100.00;100599.59;7397779;19;20015;-68
2022/11/05 02:08:54;;;;;;;18.52;12.07;;;;;;;7.60;100.00;100598.78;7398405;19;20015;-69
2022/11/05 02:11:22;;;;;;;22.05;12.80;;;;;;;7.57;100.00;100601.44;7396401;19;20082;-69
2022/11/05 02:13:51;;;;;;;21.17;12.73;;;;;;;7.57;100.00;100600.56;7396473;19;20018;-67
2022/11/05 02:16:30;;;;;;;20.17;12.43;;;;;;;7.53;100.00;100611.91;7395416;19;20430;-67
2022/11/05 02:19:20;;;;;;;20.88;13.10;;;;;;;7.51;100.00;100614.56;7396648;19;20511;-66
2022/11/05 02:22:14;;;;;;;21.30;11.88;;;;;;;7.48;100.00;100631.13;7397103;19;20548;-66
2022/11/05 02:25:02;;;;;;;19.75;12.82;;;;;;;7.47;100.00;100632.00;7394968;19;20023;-66
2022/11/05 02:27:50;;;;;;;20.35;12.63;;;;;;;7.45;100.00;100627.66;7397146;19;20086;-66
2022/11/05 02:30:35;;;;;;;18.00;11.73;;;;;;;7.44;100.00;100634.66;7395913;19;20078;-67
2022/11/05 02:33:14;;;;;;;19.70;13.25;;;;;;;7.43;100.00;100634.63;7396557;19;20501;-66
2022/11/05 02:35:59;;;;;;;21.58;12.98;;;;;;;7.42;100.00;100641.63;7397588;19;20078;-66
2022/11/05 02:38:41;;;;;;;17.67;12.05;;;;;;;7.42;100.00;100639.00;7397245;19;20074;-66
2022/11/05 02:41:24;;;;;;;20.60;11.98;;;;;;;7.42;100.00;100648.56;7397411;19;20035;-67
2022/11/05 02:44:08;;;;;;;17.73;10.77;;;;;;;7.42;100.00;100659.00;7396354;19;20394;-67
2022/11/05 02:46:47;;;;;;;17.88;12.00;;;;;;;7.42;100.00;100659.00;7395587;19;20039;-66
2022/11/05 02:49:28;;;;;;;16.92;11.32;;;;;;;7.42;100.00;100653.78;7396304;19;20070;-66
2022/11/05 02:51:59;;;;;;;18.67;11.45;;;;;;;7.41;100.00;100649.47;7396253;19;20031;-66
2022/11/05 02:54:34;;;;;;;16.65;11.38;;;;;;;7.41;100.00;100650.31;7394260;19;20018;-67
2022/11/05 02:57:09;;;;;;;;;;;;;;;7.39;100.00;100648.63;7395989;19;20552;-66
2022/11/05 02:59:38;;;;;;;19.90;11.93;;;;;;;7.40;100.00;100655.56;7395868;19;20386;-66
2022/11/05 03:02:09;;;;;;;15.63;10.90;;;;;;;7.40;100.00;100660.78;7396335;19;20026;-66
2022/11/05 03:04:38;;;;;;;17.42;11.65;;;;;;;7.39;100.00;100666.88;7394993;19;20035;-66
2022/11/05 03:07:23;;;;;;;18.73;11.55;;;;;;;7.39;100.00;100665.13;7394118;19;20016;-66
2022/11/05 03:10:16;;;;;;;17.90;10.85;;;;;;;7.37;100.00;100661.69;7395684;19;20014;-66
2022/11/05 03:12:58;;;;;;;23.77;11.50;;;;;;;7.37;100.00;100655.59;7396233;19;20035;-66
2022/11/05 03:15:41;;;;;;;19.02;10.40;;;;;;;7.36;100.00;100659.94;7395530;19;20488;-66
2022/11/05 03:18:17;;;;;;;18.85;10.65;;;;;;;7.36;100.00;100662.56;7394446;19;20022;-66
2022/11/05 03:20:51;;;;;;;18.40;9.82;;;;;;;7.34;100.00;100675.63;7394408;19;20014;-66
2022/11/05 03:23:29;;;;;;;17.83;10.93;;;;;;;7.36;100.00;100672.16;7394903;19;20023;-66
2022/11/05 03:26:08;;;;;;;17.88;10.25;;;;;;;7.34;100.00;100677.34;7392903;19;20074;-66
2022/11/05 03:28:40;;;;;;;16.67;11.07;;;;;;;7.32;100.00;100684.34;7393482;19;20513;-66
2022/11/05 03:31:09;;;;;;;19.85;10.95;;;;;;;7.32;100.00;100690.44;7394191;19;20022;-66
2022/11/05 03:33:42;;;;;;;16.30;10.40;;;;;;;7.30;100.00;100688.72;7394309;19;20011;-66
2022/11/05 03:36:17;;;;;;;16.77;10.57;;;;;;;7.29;100.00;100697.41;7395603;19;20018;-66
2022/11/05 03:38:48;;;;;;;;;;;;;;;7.27;100.00;100702.66;7396426;19;20079;-66
2022/11/05 03:41:18;;;;;;;13.43;8.95;;;;;;;7.25;100.00;100704.41;7393835;19;19982;-66
2022/11/05 03:43:50;;;;;;;22.05;10.30;;;;;;;7.24;100.00;100705.31;7394640;19;20038;-66
2022/11/05 03:46:25;;;;;;;19.67;11.18;;;;;;;7.23;100.00;100706.19;7395465;19;20022;-66
2022/11/05 03:48:59;;;;;;;13.70;9.18;;;;;;;7.22;100.00;100714.88;7394580;19;20415;-66
2022/11/05 03:51:37;;;;;;;17.17;10.07;;;;;;;7.23;100.00;100715.72;7392698;19;20083;-66
2022/11/05 03:54:07;;;;;;;15.68;8.88;;;;;;;7.22;100.00;100714.03;7393882;19;20027;-66
2022/11/05 03:56:41;;;;;;;19.20;8.93;;;;;;;7.20;100.00;100711.41;7393987;19;20014;-66
2022/11/05 03:59:12;;;;;;;18.77;9.73;;;;;;;7.18;100.00;100721.00;7394780;19;20086;-66
2022/11/05 04:01:41;;;;;;;13.52;8.27;;;;;;;7.17;100.00;100722.75;7394175;19;20489;-66
2022/11/05 04:04:12;;;;;;;19.02;9.38;;;;;;;7.15;100.00;100732.34;7393366;19;20015;-66
2022/11/05 04:14:43;;;;;;;15.52;8.90;;;;;;;7.07;100.00;100754.16;7392758;19;20018;-66
2022/11/05 04:17:09;;;;;;;18.90;8.80;;;;;;;7.04;100.00;100744.59;7394212;19;20035;-66
2022/11/05 04:25:03;;;;;;;17.27;8.82;;;;;;;6.98;100.00;100768.13;7392633;19;20011;-66
2022/11/05 04:27:32;;;;;;;12.88;8.77;;;;;;;6.96;100.00;100768.13;7391925;19;20074;-66
2022/11/05 04:32:41;;;;;;;14.93;7.88;;;;;;;6.94;100.00;100775.09;7393930;19;20037;-67
2022/11/05 04:35:12;;;;;;;14.32;8.07;;;;;;;6.94;100.00;100777.69;7392021;19;20035;-67
2022/11/05 04:37:41;;;;;;;15.63;8.00;;;;;;;6.93;100.00;100775.97;7398051;19;20513;-66
2022/11/05 04:40:10;;;;;;;24.48;9.50;;;;;;;6.92;100.00;100769.00;7399474;19;20026;-67
2022/11/05 04:42:39;;;;;;;15.60;9.00;;;;;;;6.91;100.00;100764.66;7400907;19;20019;-66
2022/11/05 04:45:08;;;;;;;13.43;7.88;;;;;;;6.92;100.00;100766.41;7397867;19;20019;-66
2022/11/05 04:47:36;;;;;;;17.38;8.63;;;;;;;6.91;100.00;100762.06;7400307;19;20078;-67
2022/11/05 04:50:05;;;;;;;18.75;8.27;;;;;;;6.91;100.00;100762.06;7400563;19;20098;-66
2022/11/05 04:52:36;;;;;;;15.55;7.65;;;;;;;6.90;100.00;100764.69;7400520;19;20087;-66
2022/11/05 04:55:05;;;;;;;16.38;7.93;;;;;;;6.88;100.00;100762.09;7397696;19;20019;-66
2022/11/05 04:57:33;;;;;;;16.95;7.82;;;;;;;6.87;100.00;100757.72;7398287;19;20010;-66
2022/11/05 05:00:02;;;;;;;14.13;7.75;;;;;;;6.84;100.00;100757.78;7399215;19;20078;-66
2022/11/05 05:02:30;;;;;;;11.20;7.05;;;;;;;6.81;100.00;100769.09;7397329;19;20510;-66
2022/11/05 05:04:59;;;;;;;16.10;7.75;;;;;;;6.81;100.00;100768.19;7397360;19;20478;-66
2022/11/05 05:07:28;;;;;;;20.20;7.47;;;;;;;6.78;100.00;100770.84;7397590;19;20070;-66
2022/11/05 05:09:59;;;;;;;16.33;7.95;;;;;;;6.76;100.00;100775.19;7400076;19;20018;-66
2022/11/05 05:12:28;;;;;;;15.57;7.47;;;;;;;6.73;100.00;100770.84;7400714;19;20035;-66
2022/11/05 05:14:56;;;;;;;15.82;7.85;;;;;;;6.72;100.00;100771.72;7397156;19;20086;-66
2022/11/05 05:17:25;;;;;;;18.23;7.30;;;;;;;6.70;100.00;100770.88;7397413;19;20022;-66
2022/11/05 05:22:35;;;;;;;18.10;7.28;;;;;;;6.67;100.00;100781.31;7400194;19;20401;-66
2022/11/05 05:25:06;;;;;;;13.55;8.00;;;;;;;6.64;100.00;100787.41;7396895;19;20031;-66
2022/11/05 05:27:35;;;;;;;18.38;7.72;;;;;;;6.62;100.00;100803.94;7399182;19;20018;-66
2022/11/05 05:30:03;;;;;;;19.67;8.35;;;;;;;6.62;100.00;100807.44;7399362;19;20019;-67
2022/11/05 05:32:32;;;;;;;16.83;7.93;;;;;;;6.60;100.00;100813.53;7398647;19;20591;-66
2022/11/05 05:35:00;;;;;;;14.38;7.25;;;;;;;6.59;100.00;100820.47;7397011;19;20018;-67
2022/11/05 05:37:29;;;;;;;14.85;7.18;;;;;;;6.57;100.00;100813.53;7396674;19;20043;-67
2022/11/05 05:39:57;;;;;;;14.07;7.38;;;;;;;6.56;100.00;100820.50;7397865;19;20497;-67
2022/11/05 05:42:28;;;;;;;16.17;7.68;;;;;;;6.54;100.00;100821.38;7396834;19;20042;-67
2022/11/05 05:44:57;;;;;;;12.57;6.85;;;;;;;6.53;100.00;100823.09;7396346;19;20433;-67
2022/11/05 05:47:25;;;;;;;15.93;7.65;;;;;;;6.49;100.00;100818.75;7394194;19;20018;-67
2022/11/05 05:49:54;;;;;;;16.38;7.03;;;;;;;6.49;100.00;100818.75;7398700;19;20031;-67
2022/11/05 05:52:22;;;;;;;17.85;7.50;;;;;;;6.47;100.00;100820.50;7398199;19;20069;-67
2022/11/05 05:54:50;;;;;;;17.00;7.22;;;;;;;6.46;100.00;100827.47;7396241;19;20082;-67
2022/11/05 05:57:19;;;;;;;22.38;7.15;;;;;;;6.43;100.00;100832.69;7395706;19;20015;-67
2022/11/05 05:59:50;;;;;;;17.50;7.35;;;;;;;6.42;100.00;100836.19;7395851;19;20486;-67
2022/11/05 06:02:18;;;;;;;17.23;7.15;;;;;;;6.41;100.00;100839.66;7395808;19;20015;-67
2022/11/05 06:04:47;;;;;;;15.70;6.93;;;;;;;6.40;100.00;100848.34;7396376;19;20031;-66
2022/11/05 06:07:15;;;;;;;15.50;6.78;;;;;;;6.40;100.00;100852.69;7397683;19;20070;-67
2022/11/05 06:09:44;;;;;;;18.80;7.68;;;;;;;6.39;100.00;100862.22;7397938;19;20037;-67
2022/11/05 06:12:12;;;;;;;17.67;6.75;;;;;;;6.38;100.00;100854.41;7395690;19;20485;-67
2022/11/05 06:14:40;;;;;;;16.58;7.10;;;;;;;6.38;100.00;100865.69;7396405;19;20035;-67
2022/11/05 06:17:11;;;;;;;16.88;7.22;;;;;;;6.36;100.00;100868.31;7395873;19;20027;-67
2022/11/05 06:19:40;;;;;;;20.25;6.50;;;;;;;6.36;100.00;100876.13;7395994;19;20019;-67
2022/11/05 06:22:08;;;;;;;29.85;15.95;;;;;;;6.35;100.00;100883.97;7395308;19;20022;-67
2022/11/05 06:24:37;;;;;;;12.02;6.22;;;;;;;6.34;100.00;100888.31;7395687;19;20035;-66
2022/11/05 06:27:06;;;;;;;15.75;7.07;;;;;;;6.34;100.00;100893.53;7395137;19;20023;-67
2022/11/05 06:29:35;;;;;;;17.83;6.47;;;;;;;6.33;100.00;100893.50;7395580;19;20014;-67
2022/11/05 06:32:03;;;;;;;17.73;7.22;;;;;;;6.32;100.00;100894.41;7395556;19;20038;-66
2022/11/05 06:34:35;;;;;;;15.30;6.47;;;;;;;6.31;100.00;100906.53;7395841;19;20018;-67
2022/11/05 06:37:04;;;;;;;13.82;7.03;;;;;;;6.32;100.00;100904.81;7397135;19;20019;-67
2022/11/05 06:39:32;;;;;;;21.17;6.88;;;;;;;6.30;100.00;100906.56;7394827;19;20086;-67
2022/11/05 06:42:01;;;;;;;17.42;6.63;;;;;;;6.29;100.00;100902.22;7395514;19;20027;-66
2022/11/05 06:44:29;;;;;;;17.00;6.65;;;;;;;6.28;100.00;100903.06;7395009;19;20507;-66
2022/11/05 06:46:59;;;;;;;15.25;6.60;;;;;;;6.27;100.00;100909.16;7396262;19;20019;-66
2022/11/05 06:49:27;;;;;;;13.98;6.25;;;;;;;6.25;100.00;100911.75;7396948;19;20041;-67
2022/11/05 06:51:59;;;;;;;15.55;5.93;;;;;;;6.25;100.00;100914.38;7394792;19;20035;-67
2022/11/05 06:54:28;;;;;;;21.60;6.68;;;;;;;6.25;100.00;100913.53;7395062;19;20504;-67
2022/11/05 06:56:56;;;;;;;16.02;7.30;;;;;;;6.25;100.00;100922.19;7396104;19;20014;-67
2022/11/05 06:59:25;;;;;;;17.02;6.35;;;;;;;6.22;100.00;100918.72;7396560;19;20023;-67
2022/11/05 07:01:53;;;;;;;19.23;6.75;;;;;;;6.23;100.00;100931.75;7394582;19;20085;-66
2022/11/05 07:04:22;;;;;;;21.13;7.00;;;;;;;6.24;100.00;100936.06;7394032;19;20035;-67
2022/11/05 07:06:50;;;;;;;13.77;6.22;;;;;;;6.24;100.00;100943.91;7394360;19;20039;-66
2022/11/05 07:09:21;;;;;;;16.92;6.45;;;;;;;6.25;100.00;100950.00;7396098;19;20035;-67
2022/11/05 07:11:50;;;;;;;15.13;6.32;;;;;;;6.25;100.00;100947.38;7395549;19;20533;-67
2022/11/05 07:14:18;;;;;;;16.27;6.28;;;;;;;6.22;100.00;100948.25;7394923;19;20151;-67
2022/11/05 07:16:47;;;;;;;14.68;6.53;;;;;;;6.28;100.00;100952.59;7395719;19;20026;-67
2022/11/05 07:19:15;;;;;;;14.98;7.43;;;;;;;6.29;100.00;100956.94;7394965;19;20506;-66
2022/11/05 07:21:44;;;;;;;16.98;6.93;;;;;;;6.31;100.00;100965.63;7394821;19;20022;-67
2022/11/05 07:24:14;;;;;;;12.27;6.50;;;;;;;6.33;100.00;100963.88;7393480;19;20042;-66
2022/11/05 07:26:45;;;;;;;19.65;7.30;;;;;;;6.34;100.00;100963.91;7394937;19;20022;-66
2022/11/05 07:29:13;;;;;;;18.95;7.28;;;;;;;6.36;100.00;100962.13;7395504;19;20022;-67
2022/11/05 07:31:42;;;;;;;17.80;6.68;;;;;;;6.36;100.00;100967.34;7392755;19;20074;-67
2022/11/05 07:34:10;;;;;;;17.88;7.00;;;;;;;6.38;100.00;100975.16;7393858;19;20022;-66
2022/11/05 07:36:39;;;;;;;20.20;7.47;;;;;;;6.39;100.00;100976.91;7393226;19;20090;-66
2022/11/05 07:39:07;;;;;;;14.77;6.85;;;;;;;6.37;100.00;100978.66;7394825;19;20078;-68
2022/11/05 07:41:36;;;;;;;15.95;7.00;;;;;;;6.40;100.00;100977.78;7393000;19;20014;-66
2022/11/05 07:44:07;;;;;;;18.05;7.50;;;;;;;6.40;100.00;100985.59;7393691;19;20025;-68
2022/11/05 07:46:36;;;;;;;13.40;6.50;;;;;;;6.42;100.00;100994.28;7395515;19;20427;-68
2022/11/05 07:49:04;;;;;;;16.42;7.78;;;;;;;6.42;100.00;100991.66;7394727;19;20481;-67
2022/11/05 07:51:33;;;;;;;15.05;7.15;;;;;;;6.43;100.00;100978.66;7393320;19;20024;-67
2022/11/05 07:54:01;;;;;;;14.95;6.35;;;;;;;6.45;100.00;100976.03;7394103;19;20026;-66
2022/11/05 07:56:30;;;;;;;15.60;6.32;;;;;;;6.46;100.00;100980.38;7394041;19;20491;-67
2022/11/05 07:58:58;;;;;;;23.92;6.95;;;;;;;6.47;100.00;100979.50;7392645;19;20026;-67
2022/11/05 08:01:29;;;;;;;17.88;6.68;;;;;;;6.50;100.00;100985.56;7392554;19;20022;-67
2022/11/05 08:03:58;;;;;;;22.15;6.60;;;;;;;6.52;100.00;100982.97;7393803;19;20078;-68
2022/11/05 08:06:26;;;;;;;23.27;6.72;;;;;;;6.55;100.00;100990.78;7394600;19;20018;-68
2022/11/05 08:08:55;;;;;;;16.70;6.22;;;;;;;6.60;100.00;100990.81;7392169;19;20422;-67
2022/11/05 08:11:23;;;;;;;14.30;5.45;;;;;;;6.62;99.77;101000.34;7398490;19;20034;-67
2022/11/05 08:13:52;;;;;;;18.85;6.05;;;;;;;6.66;99.78;101002.06;7400870;19;20018;-67
2022/11/05 08:16:20;;;;;;;18.75;6.93;;;;;;;6.70;99.99;101010.78;7401614;19;20035;-66
2022/11/05 08:18:51;;;;;;;17.77;5.70;;;;;;;6.77;100.00;101019.44;7401059;19;20019;-67
2022/11/05 08:21:20;;;;;;;21.63;9.18;;;;;;;6.82;99.87;101023.78;7400826;19;20028;-67
2022/11/05 08:23:48;;;;;;;15.25;7.80;;;;;;;6.88;100.00;101029.88;7399911;19;20427;-66
2022/11/05 08:26:18;;;;;;;16.80;8.00;;;;;;;6.93;100.00;101036.81;7401333;19;20030;-68
2022/11/05 08:28:46;;;;;;;20.88;8.15;;;;;;;6.99;100.00;101034.19;7400893;19;20018;-67
2022/11/05 08:31:16;;;;;;;9.68;5.88;;;;;;;7.05;99.76;101027.22;7397827;19;20022;-67
2022/11/05 08:33:45;;;;;;;13.68;5.22;;;;;;;7.08;99.67;101024.59;7399487;19;20018;-67
2022/11/05 08:36:22;;;;;;;16.95;5.10;;;;;;;7.11;98.32;101029.81;7400892;19;20022;-68
2022/11/05 08:38:51;;;;;;;14.02;5.35;;;;;;;7.15;98.42;101034.13;7398854;19;20027;-67
2022/11/05 08:41:19;;;;;;;14.75;5.10;;;;;;;7.16;97.67;101034.13;7399400;19;20025;-67
2022/11/05 08:43:48;;;;;;;15.73;6.25;;;;;;;7.20;98.14;101034.97;7399072;19;20501;-66
2022/11/05 08:46:16;;;;;;;13.15;4.35;;;;;;;7.23;97.11;101040.22;7400684;19;20090;-66
2022/11/05 08:48:52;;;;;;;14.30;4.68;;;;;;;7.27;97.85;101038.47;7397640;19;20027;-67
2022/11/05 08:51:23;;;;;;;13.10;4.88;;;;;;;7.28;97.39;101048.88;7400153;19;20432;-67
2022/11/05 08:53:51;;;;;;;12.10;4.85;;;;;;;7.31;97.06;101045.41;7399043;19;20074;-67
2022/11/05 08:56:19;;;;;;;15.02;6.10;;;;;;;7.34;97.31;101048.88;7400291;19;20078;-66
2022/11/05 08:58:48;;;;;;;16.20;5.50;;;;;;;7.38;96.72;101048.84;7398171;19;20018;-67
2022/11/05 09:01:17;;;;;;;14.93;5.38;;;;;;;7.40;96.90;101047.13;7397398;19;20088;-67
2022/11/05 09:03:45;;;;;;;13.88;5.38;;;;;;;7.43;97.01;101044.47;7398925;19;20022;-67
2022/11/05 09:06:14;;;;;;;19.83;5.40;;;;;;;7.47;96.83;101049.69;7399737;19;20031;-67
2022/11/05 09:08:45;;;;;;;13.25;5.07;;;;;;;7.49;95.88;101052.28;7399728;19;20010;-67
2022/11/05 09:11:14;;;;;;;14.18;4.25;;;;;;;7.55;96.05;101047.03;7397726;19;20042;-67
2022/11/05 09:13:42;;;;;;;16.73;4.30;;;;;;;7.58;95.83;101052.28;7398444;19;20430;-68
2022/11/05 09:16:19;;;;;;;17.30;4.20;;;;;;;7.61;95.05;101060.06;7399153;19;20031;-66
2022/11/05 09:18:49;;;;;;;9.00;3.65;;;;;;;7.65;94.77;101059.19;7399389;19;20517;-67
2022/11/05 09:21:18;;;;;;;15.00;4.50;;;;;;;7.71;95.11;101065.25;7395594;19;20485;-66
2022/11/05 09:23:49;;;;;;;13.35;4.70;;;;;;;7.75;94.91;101067.00;7396569;19;20099;-67
2022/11/05 09:26:17;;;;;;;17.92;4.90;;;;;;;7.80;94.70;101067.84;7399741;19;20087;-66
2022/11/05 09:28:46;;;;;;;17.33;4.20;;;;;;;7.85;93.90;101073.00;7396338;19;20019;-67
2022/11/05 09:31:15;;;;;;;15.45;5.60;;;;;;;7.87;93.25;101074.75;7399081;19;20018;-67
2022/11/05 09:33:43;;;;;;;15.00;4.75;;;;;;;7.94;94.42;101083.44;7397757;19;20074;-67
2022/11/05 09:36:12;;;;;;;13.05;3.88;;;;;;;7.99;94.00;101086.88;7398252;19;20018;-68
2022/11/05 09:38:40;;;;;;;9.85;4.20;;;;;;;8.03;92.17;101079.91;7398983;19;20014;-68
2022/11/05 09:41:16;;;;;;;9.20;3.63;;;;;;;8.06;91.89;101075.53;7397849;19;20082;-68
2022/11/05 09:43:49;;;;;;;9.85;3.70;;;;;;;8.13;92.26;101090.28;7397994;19;20019;-68
2022/11/05 09:46:21;;;;;;;15.00;4.80;;;;;;;8.19;93.03;101085.88;7398538;19;20410;-68
2022/11/05 09:48:54;;;;;;;12.70;3.45;;;;;;;8.25;92.61;101084.13;7398952;19;20039;-68
2022/11/05 09:51:24;;;;;;;15.00;3.67;;;;;;;8.30;92.27;101092.81;7399294;19;20018;-71
2022/11/05 09:53:52;;;;;;;12.48;3.67;;;;;;;8.36;92.00;101096.25;7397220;19;20015;-69
2022/11/05 09:56:28;;;;;;;19.58;3.45;;;;;;;8.42;92.04;101102.28;7398233;19;20515;-67
2022/11/05 09:59:01;;;;;;;9.00;2.92;;;;;;;8.48;91.26;101110.13;7396860;19;20032;-69
2022/11/05 10:01:33;;;;;;;16.38;3.40;;;;;;;8.55;91.49;101105.72;7398217;19;20031;-68
2022/11/05 10:04:07;;;;;;;14.45;3.55;;;;;;;8.61;90.71;101110.03;7396568;19;20492;-70
2022/11/05 10:06:38;;;;;;;10.13;3.35;;;;;;;8.66;90.49;101105.66;7398187;19;20014;-68
2022/11/05 10:09:13;;;;;;;12.68;3.03;;;;;;;8.72;88.84;101104.72;7398077;19;20481;-68
2022/11/05 10:11:49;;;;;;;10.18;2.80;;;;;;;8.76;89.34;101103.81;7396736;19;20042;-67
2022/11/05 10:14:25;;;;;;;11.15;2.85;;;;;;;8.83;89.44;101115.09;7395726;19;20039;-67
2022/11/05 10:16:59;;;;;;;14.35;3.15;;;;;;;8.86;89.08;101115.94;7395497;19;20043;-67
2022/11/05 10:19:41;;;;;;;11.15;3.17;;;;;;;8.92;89.13;101118.50;7397940;19;20023;-66
2022/11/05 10:22:15;;;;;;;13.70;3.05;;;;;;;9.00;89.31;101122.78;7395878;19;20090;-66
2022/11/05 10:24:46;;;;;;;11.52;3.00;;;;;;;9.05;87.07;101119.25;7395835;19;20049;-67
2022/11/05 10:27:24;;;;;;;12.70;2.90;;;;;;;9.11;87.50;101119.22;7397072;19;20010;-75
2022/11/05 10:29:53;;;;;;;10.43;2.45;;;;;;;9.16;86.17;101115.66;7395715;19;20034;-67
2022/11/05 10:32:29;;;;;;;8.65;2.53;;;;;;;9.20;85.68;101120.88;7395206;19;20042;-66
2022/11/05 10:35:01;;;;;;;8.15;2.60;;;;;;;9.23;86.44;101126.06;7394228;19;20453;-66
2022/11/05 10:37:31;;;;;;;9.57;2.40;;;;;;;9.27;84.80;101126.91;7397908;19;20022;-66
2022/11/05 10:40:00;;;;;;;9.98;2.85;;;;;;;9.29;84.16;101126.00;7394256;19;20015;-76
2022/11/05 10:42:53;;;;;;;7.45;2.72;;;;;;;9.32;81.82;101125.09;7395560;19;20427;-67
2022/11/05 10:45:32;;;;;;;12.45;2.03;;;;;;;9.36;82.12;101142.50;7396420;19;20103;-69
2022/11/05 10:48:19;;;;;;;9.23;2.75;;;;;;;9.42;82.91;101131.97;7395270;19;20027;-66
2022/11/05 10:50:49;;;;;;;10.73;2.53;;;;;;;9.49;83.23;101134.53;7397758;19;20170;-66
2022/11/05 10:53:21;;;;;;;7.93;2.25;;;;;;;9.54;82.18;101130.97;7396197;19;20383;-67
2022/11/05 10:55:52;;;;;;;11.18;2.78;;;;;;;9.62;82.19;101133.50;7396764;19;20018;-71
2022/11/05 10:58:27;;;;;;;18.73;3.10;;;;;;;9.68;82.27;101130.81;7394788;19;20027;-65
2022/11/05 11:01:09;;;;;;;12.35;2.38;;;;;;;9.73;80.68;101125.50;7395576;19;20355;-66
2022/11/05 11:03:45;;;;;;;13.23;3.08;;;;;;;9.77;80.18;101129.84;7394359;19;20014;-66
2022/11/05 11:06:25;;;;;;;13.57;2.90;;;;;;;9.82;81.48;101133.28;7396742;19;20057;-66
2022/11/05 11:08:56;;;;;;;8.02;2.25;;;;;;;9.87;80.81;101134.09;7397276;19;20082;-65
2022/11/05 11:11:31;;;;;;;12.50;3.13;;;;;;;9.91;79.80;101134.91;7398081;19;20561;-65
2022/11/05 11:14:08;;;;;;;9.05;2.92;;;;;;;9.99;80.19;101133.03;7395654;19;20018;-66
2022/11/05 11:16:39;;;;;;;6.65;1.90;;;;;;;10.00;79.09;101126.91;7397867;19;20032;-70
2022/11/05 11:19:26;;;;;;;9.70;1.92;;;;;;;10.05;77.49;101134.75;7395610;19;20081;-67
2022/11/05 11:22:20;;;;;;;11.50;2.20;;;;;;;10.09;78.75;101134.66;7394419;19;20025;-67
2022/11/05 11:24:52;;;;;;;4.67;1.83;;;;;;;10.15;79.82;101132.84;7394023;19;20018;-67
2022/11/05 11:27:25;;;;;;;7.35;1.70;;;;;;;10.17;78.47;101144.19;7394732;19;20015;-66
2022/11/05 11:30:02;;;;;;;9.65;1.73;;;;;;;10.21;77.73;101143.25;7394692;19;20011;-70
2022/11/05 11:32:41;;;;;;;10.82;1.83;;;;;;;10.22;75.11;101140.63;7393011;19;20430;-66
2022/11/05 11:35:22;;;;;;;9.75;2.05;;;;;;;10.27;74.83;101146.66;7393444;19;20039;-66
2022/11/05 11:37:53;;;;;;;12.93;2.60;;;;;;;10.31;76.50;101141.38;7393217;19;20026;-68
2022/11/05 11:40:24;;;;;;;12.38;2.10;;;;;;;10.36;76.86;101148.31;7393602;19;20087;-67
2022/11/05 11:42:56;;;;;;;10.75;2.22;;;;;;;10.41;76.41;101143.88;7393165;19;20014;-68
2022/11/05 11:45:31;;;;;;;11.68;2.38;;;;;;;10.43;72.95;101151.72;7394743;19;20023;-67
2022/11/05 11:48:03;;;;;;;7.38;1.65;;;;;;;10.45;75.01;101147.31;7402636;19;20018;-67
2022/11/05 11:50:40;;;;;;;6.88;1.60;;;;;;;10.46;74.12;101149.03;7399849;19;20029;-67
2022/11/05 11:53:26;;;;;;;16.65;2.45;;;;;;;10.45;75.21;101142.09;7401517;19;20501;-67
2022/11/05 11:56:16;;;;;;;8.02;1.75;;;;;;;10.45;74.93;101144.72;7402296;19;20019;-67
2022/11/05 11:58:59;;;;;;;10.23;1.75;;;;;;;10.40;71.97;101141.25;7399659;19;20483;-65
2022/11/05 12:01:57;;;;;;;9.67;1.70;;;;;;;10.34;70.39;101139.56;7402672;19;20070;-66
2022/11/05 12:04:59;;;;;;;9.93;1.77;;;;;;;10.34;72.51;101143.97;7398508;19;20086;-66
2022/11/05 12:07:49;;;;;;;6.07;1.40;;;;;;;10.28;71.47;101145.75;7402673;19;20031;-67
2022/11/05 12:10:35;;;;;;;8.18;1.55;;;;;;;10.30;71.78;101143.13;7402085;19;20011;-67
2022/11/05 12:13:28;;;;;;;11.23;3.35;;;;;;;10.28;71.90;101147.53;7401859;19;20074;-66
2022/11/05 12:16:02;;;;;;;8.80;2.13;;;;;;;10.29;74.16;101141.41;7399799;19;20027;-66
2022/11/05 12:18:44;;;;;;;10.50;2.60;;;;;;;10.32;74.39;101137.84;7401601;19;20021;-66
2022/11/05 12:21:19;;;;;;;8.43;1.55;;;;;;;10.32;72.18;101141.34;7399665;19;20040;-66
2022/11/05 12:24:05;;;;;;;4.72;1.15;;;;;;;10.33;69.53;101143.06;7399320;19;20530;-67